sensor_id;sensor_type;location;lat;lon;timestamp;temperature;humidity
8420;DHT22;4247;48.550;8.822;2023-06-10T00:00:03;18.50;92.00
8420;DHT22;4247;48.550;8.822;2023-06-10T00:02:31;18.40;91.60
8420;DHT22;4247;48.550;8.822;2023-06-10T00:04:58;18.40;92.30
8420;DHT22;4247;48.550;8.822;2023-06-10T00:07:24;18.40;92.10
8420;DHT22;4247;48.550;8.822;2023-06-10T00:09:51;18.30;92.20
8420;DHT22;4247;48.550;8.822;2023-06-10T00:12:18;18.30;92.50
8420;DHT22;4247;48.550;8.822;2023-06-10T00:14:47;18.20;92.50
8420;DHT22;4247;48.550;8.822;2023-06-10T00:17:15;18.20;92.80
8420;DHT22;4247;48.550;8.822;2023-06-10T00:19:42;18.10;93.60
8420;DHT22;4247;48.550;8.822;2023-06-10T00:22:09;18.00;93.40
8420;DHT22;4247;48.550;8.822;2023-06-10T00:24:36;18.00;94.00
8420;DHT22;4247;48.550;8.822;2023-06-10T00:27:03;17.90;94.10
8420;DHT22;4247;48.550;8.822;2023-06-10T00:29:30;17.90;94.00
8420;DHT22;4247;48.550;8.822;2023-06-10T00:31:59;17.80;94.40
8420;DHT22;4247;48.550;8.822;2023-06-10T00:34:25;17.70;94.60
8420;DHT22;4247;48.550;8.822;2023-06-10T00:36:52;17.70;94.60
8420;DHT22;4247;48.550;8.822;2023-06-10T00:39:19;17.60;94.60
8420;DHT22;4247;48.550;8.822;2023-06-10T00:41:46;17.60;94.60
8420;DHT22;4247;48.550;8.822;2023-06-10T00:44:12;17.50;95.10
8420;DHT22;4247;48.550;8.822;2023-06-10T00:46:39;17.40;96.00
8420;DHT22;4247;48.550;8.822;2023-06-10T00:49:07;17.30;96.10
8420;DHT22;4247;48.550;8.822;2023-06-10T00:51:34;17.20;96.60
8420;DHT22;4247;48.550;8.822;2023-06-10T00:54:02;17.10;96.80
8420;DHT22;4247;48.550;8.822;2023-06-10T00:56:29;16.90;97.30
8420;DHT22;4247;48.550;8.822;2023-06-10T00:58:57;16.90;97.50
8420;DHT22;4247;48.550;8.822;2023-06-10T01:01:24;16.80;97.50
8420;DHT22;4247;48.550;8.822;2023-06-10T01:03:50;16.80;97.30
8420;DHT22;4247;48.550;8.822;2023-06-10T01:06:24;16.80;96.70
8420;DHT22;4247;48.550;8.822;2023-06-10T01:08:59;16.80;96.80
8420;DHT22;4247;48.550;8.822;2023-06-10T01:11:34;16.80;97.10
8420;DHT22;4247;48.550;8.822;2023-06-10T01:14:02;16.80;97.20
8420;DHT22;4247;48.550;8.822;2023-06-10T01:16:30;16.80;96.70
8420;DHT22;4247;48.550;8.822;2023-06-10T01:18:58;16.80;97.20
8420;DHT22;4247;48.550;8.822;2023-06-10T01:21:27;16.70;97.90
8420;DHT22;4247;48.550;8.822;2023-06-10T01:23:54;16.70;97.50
8420;DHT22;4247;48.550;8.822;2023-06-10T01:26:28;16.70;98.00
8420;DHT22;4247;48.550;8.822;2023-06-10T01:28:59;16.70;97.80
8420;DHT22;4247;48.550;8.822;2023-06-10T01:31:32;16.70;97.50
8420;DHT22;4247;48.550;8.822;2023-06-10T01:34:04;16.70;97.60
8420;DHT22;4247;48.550;8.822;2023-06-10T01:36:35;16.70;96.80
8420;DHT22;4247;48.550;8.822;2023-06-10T01:39:04;16.70;97.30
8420;DHT22;4247;48.550;8.822;2023-06-10T01:41:32;16.70;97.60
8420;DHT22;4247;48.550;8.822;2023-06-10T01:43:59;16.70;97.10
8420;DHT22;4247;48.550;8.822;2023-06-10T01:46:25;16.70;97.20
8420;DHT22;4247;48.550;8.822;2023-06-10T01:48:52;16.70;97.80
8420;DHT22;4247;48.550;8.822;2023-06-10T01:51:19;16.70;97.70
8420;DHT22;4247;48.550;8.822;2023-06-10T01:53:47;16.70;97.50
8420;DHT22;4247;48.550;8.822;2023-06-10T01:56:14;16.70;96.90
8420;DHT22;4247;48.550;8.822;2023-06-10T01:58:43;16.60;97.60
8420;DHT22;4247;48.550;8.822;2023-06-10T02:01:10;16.70;98.20
8420;DHT22;4247;48.550;8.822;2023-06-10T02:03:36;16.50;98.50
8420;DHT22;4247;48.550;8.822;2023-06-10T02:06:03;16.60;98.20
8420;DHT22;4247;48.550;8.822;2023-06-10T02:08:30;16.50;99.10
8420;DHT22;4247;48.550;8.822;2023-06-10T02:10:58;16.40;98.80
8420;DHT22;4247;48.550;8.822;2023-06-10T02:13:25;16.40;99.20
8420;DHT22;4247;48.550;8.822;2023-06-10T02:15:51;16.40;98.20
8420;DHT22;4247;48.550;8.822;2023-06-10T02:18:19;16.40;99.00
8420;DHT22;4247;48.550;8.822;2023-06-10T02:20:47;16.30;99.00
8420;DHT22;4247;48.550;8.822;2023-06-10T02:23:14;16.30;99.20
8420;DHT22;4247;48.550;8.822;2023-06-10T02:25:40;16.30;99.30
8420;DHT22;4247;48.550;8.822;2023-06-10T02:28:09;16.30;99.60
8420;DHT22;4247;48.550;8.822;2023-06-10T02:30:36;16.30;99.50
8420;DHT22;4247;48.550;8.822;2023-06-10T02:33:05;16.30;99.60
8420;DHT22;4247;48.550;8.822;2023-06-10T02:35:35;16.20;99.90
8420;DHT22;4247;48.550;8.822;2023-06-10T02:38:02;16.20;99.90
8420;DHT22;4247;48.550;8.822;2023-06-10T02:40:29;16.10;99.90
8420;DHT22;4247;48.550;8.822;2023-06-10T02:42:56;16.10;99.90
8420;DHT22;4247;48.550;8.822;2023-06-10T02:45:24;16.10;99.90
8420;DHT22;4247;48.550;8.822;2023-06-10T02:47:51;16.10;99.90
8420;DHT22;4247;48.550;8.822;2023-06-10T02:50:18;16.00;99.90
8420;DHT22;4247;48.550;8.822;2023-06-10T02:52:44;16.00;99.90
8420;DHT22;4247;48.550;8.822;2023-06-10T02:55:11;15.90;99.90
8420;DHT22;4247;48.550;8.822;2023-06-10T02:57:38;15.90;99.90
8420;DHT22;4247;48.550;8.822;2023-06-10T03:00:06;15.90;99.90
8420;DHT22;4247;48.550;8.822;2023-06-10T03:02:37;15.90;99.90
8420;DHT22;4247;48.550;8.822;2023-06-10T03:05:04;15.90;99.90
8420;DHT22;4247;48.550;8.822;2023-06-10T03:07:35;15.90;99.90
8420;DHT22;4247;48.550;8.822;2023-06-10T03:10:02;15.90;99.90
8420;DHT22;4247;48.550;8.822;2023-06-10T03:12:29;15.90;99.90
8420;DHT22;4247;48.550;8.822;2023-06-10T03:14:55;15.90;99.90
8420;DHT22;4247;48.550;8.822;2023-06-10T03:17:22;16.00;99.90
8420;DHT22;4247;48.550;8.822;2023-06-10T03:19:50;16.00;99.90
8420;DHT22;4247;48.550;8.822;2023-06-10T03:22:17;15.90;99.90
8420;DHT22;4247;48.550;8.822;2023-06-10T03:24:44;16.00;99.90
8420;DHT22;4247;48.550;8.822;2023-06-10T03:27:12;16.00;99.90
8420;DHT22;4247;48.550;8.822;2023-06-10T03:29:39;16.00;99.90
8420;DHT22;4247;48.550;8.822;2023-06-10T03:32:06;16.10;99.90
8420;DHT22;4247;48.550;8.822;2023-06-10T03:34:33;16.10;99.90
8420;DHT22;4247;48.550;8.822;2023-06-10T03:37:01;16.10;99.90
8420;DHT22;4247;48.550;8.822;2023-06-10T03:39:28;16.20;99.90
8420;DHT22;4247;48.550;8.822;2023-06-10T03:41:55;16.20;99.90
8420;DHT22;4247;48.550;8.822;2023-06-10T03:44:22;16.20;99.90
8420;DHT22;4247;48.550;8.822;2023-06-10T03:46:49;16.20;99.90
8420;DHT22;4247;48.550;8.822;2023-06-10T03:49:15;16.20;99.90
8420;DHT22;4247;48.550;8.822;2023-06-10T03:51:42;16.30;99.90
8420;DHT22;4247;48.550;8.822;2023-06-10T03:54:10;16.30;99.90
8420;DHT22;4247;48.550;8.822;2023-06-10T03:56:37;16.40;99.90
8420;DHT22;4247;48.550;8.822;2023-06-10T03:59:04;16.40;99.90
8420;DHT22;4247;48.550;8.822;2023-06-10T04:01:31;16.40;99.90
8420;DHT22;4247;48.550;8.822;2023-06-10T04:03:58;16.50;99.90
8420;DHT22;4247;48.550;8.822;2023-06-10T04:06:26;16.50;99.90
8420;DHT22;4247;48.550;8.822;2023-06-10T04:08:54;16.60;99.90
8420;DHT22;4247;48.550;8.822;2023-06-10T04:11:23;16.60;99.90
8420;DHT22;4247;48.550;8.822;2023-06-10T04:13:50;16.60;99.90
8420;DHT22;4247;48.550;8.822;2023-06-10T04:16:17;16.70;99.90
8420;DHT22;4247;48.550;8.822;2023-06-10T04:18:43;16.70;99.90
8420;DHT22;4247;48.550;8.822;2023-06-10T04:21:10;16.80;99.90
8420;DHT22;4247;48.550;8.822;2023-06-10T04:23:36;16.90;99.90
8420;DHT22;4247;48.550;8.822;2023-06-10T04:26:05;16.90;99.90
8420;DHT22;4247;48.550;8.822;2023-06-10T04:28:33;17.00;99.90
8420;DHT22;4247;48.550;8.822;2023-06-10T04:31:01;17.00;99.90
8420;DHT22;4247;48.550;8.822;2023-06-10T04:33:29;17.10;99.90
8420;DHT22;4247;48.550;8.822;2023-06-10T04:35:56;17.50;99.90
8420;DHT22;4247;48.550;8.822;2023-06-10T04:38:23;17.90;99.90
8420;DHT22;4247;48.550;8.822;2023-06-10T04:40:50;18.30;99.90
8420;DHT22;4247;48.550;8.822;2023-06-10T04:43:16;18.60;98.90
8420;DHT22;4247;48.550;8.822;2023-06-10T04:45:45;18.80;98.30
8420;DHT22;4247;48.550;8.822;2023-06-10T04:48:12;19.00;97.90
8420;DHT22;4247;48.550;8.822;2023-06-10T04:50:39;19.10;97.80
8420;DHT22;4247;48.550;8.822;2023-06-10T04:53:06;18.80;98.30
8420;DHT22;4247;48.550;8.822;2023-06-10T04:55:32;18.70;98.20
8420;DHT22;4247;48.550;8.822;2023-06-10T04:57:59;18.50;98.70
8420;DHT22;4247;48.550;8.822;2023-06-10T05:00:26;18.40;99.00
8420;DHT22;4247;48.550;8.822;2023-06-10T05:02:54;18.30;99.40
8420;DHT22;4247;48.550;8.822;2023-06-10T05:05:21;18.30;99.70
8420;DHT22;4247;48.550;8.822;2023-06-10T05:07:48;18.20;99.70
8420;DHT22;4247;48.550;8.822;2023-06-10T05:10:15;18.20;99.90
8420;DHT22;4247;48.550;8.822;2023-06-10T05:12:42;18.20;99.70
8420;DHT22;4247;48.550;8.822;2023-06-10T05:15:09;18.20;99.90
8420;DHT22;4247;48.550;8.822;2023-06-10T05:17:36;18.30;99.70
8420;DHT22;4247;48.550;8.822;2023-06-10T05:20:05;18.40;99.90
8420;DHT22;4247;48.550;8.822;2023-06-10T05:22:33;18.40;99.60
8420;DHT22;4247;48.550;8.822;2023-06-10T05:25:00;18.50;99.20
8420;DHT22;4247;48.550;8.822;2023-06-10T05:27:28;18.60;99.70
8420;DHT22;4247;48.550;8.822;2023-06-10T05:29:55;18.60;99.00
8420;DHT22;4247;48.550;8.822;2023-06-10T05:32:22;18.70;98.80
8420;DHT22;4247;48.550;8.822;2023-06-10T05:34:48;18.70;98.80
8420;DHT22;4247;48.550;8.822;2023-06-10T05:37:16;18.80;98.70
8420;DHT22;4247;48.550;8.822;2023-06-10T05:39:43;18.80;98.70
8420;DHT22;4247;48.550;8.822;2023-06-10T05:42:11;18.90;99.00
8420;DHT22;4247;48.550;8.822;2023-06-10T05:44:37;19.00;98.90
8420;DHT22;4247;48.550;8.822;2023-06-10T05:47:04;19.10;99.30
8420;DHT22;4247;48.550;8.822;2023-06-10T05:49:31;19.10;98.90
8420;DHT22;4247;48.550;8.822;2023-06-10T05:51:58;19.30;98.60
8420;DHT22;4247;48.550;8.822;2023-06-10T05:54:26;19.30;98.50
8420;DHT22;4247;48.550;8.822;2023-06-10T05:56:53;19.40;98.70
8420;DHT22;4247;48.550;8.822;2023-06-10T05:59:20;19.40;98.40
8420;DHT22;4247;48.550;8.822;2023-06-10T06:01:48;19.40;98.20
8420;DHT22;4247;48.550;8.822;2023-06-10T06:04:15;19.50;98.30
8420;DHT22;4247;48.550;8.822;2023-06-10T06:06:41;19.60;98.10
8420;DHT22;4247;48.550;8.822;2023-06-10T06:09:08;19.70;98.40
8420;DHT22;4247;48.550;8.822;2023-06-10T06:11:36;19.70;98.00
8420;DHT22;4247;48.550;8.822;2023-06-10T06:14:03;19.80;97.80
8420;DHT22;4247;48.550;8.822;2023-06-10T06:16:30;19.90;98.00
8420;DHT22;4247;48.550;8.822;2023-06-10T06:18:56;20.00;97.80
8420;DHT22;4247;48.550;8.822;2023-06-10T06:21:23;20.00;98.10
8420;DHT22;4247;48.550;8.822;2023-06-10T06:23:50;20.10;97.80
8420;DHT22;4247;48.550;8.822;2023-06-10T06:26:16;20.10;97.50
8420;DHT22;4247;48.550;8.822;2023-06-10T06:28:44;20.20;98.00
8420;DHT22;4247;48.550;8.822;2023-06-10T06:31:11;20.10;97.30
8420;DHT22;4247;48.550;8.822;2023-06-10T06:33:38;20.20;97.60
8420;DHT22;4247;48.550;8.822;2023-06-10T06:36:05;20.30;97.60
8420;DHT22;4247;48.550;8.822;2023-06-10T06:38:32;20.40;97.50
8420;DHT22;4247;48.550;8.822;2023-06-10T06:40:59;20.50;97.50
8420;DHT22;4247;48.550;8.822;2023-06-10T06:43:28;20.60;97.50
8420;DHT22;4247;48.550;8.822;2023-06-10T06:45:57;20.80;97.40
8420;DHT22;4247;48.550;8.822;2023-06-10T06:48:23;20.90;97.10
8420;DHT22;4247;48.550;8.822;2023-06-10T06:50:50;21.00;97.00
8420;DHT22;4247;48.550;8.822;2023-06-10T06:53:17;21.00;96.70
8420;DHT22;4247;48.550;8.822;2023-06-10T06:55:44;21.10;96.30
8420;DHT22;4247;48.550;8.822;2023-06-10T06:58:10;21.30;96.50
8420;DHT22;4247;48.550;8.822;2023-06-10T07:00:37;21.30;96.40
8420;DHT22;4247;48.550;8.822;2023-06-10T07:03:05;21.30;96.30
8420;DHT22;4247;48.550;8.822;2023-06-10T07:05:32;21.50;96.70
8420;DHT22;4247;48.550;8.822;2023-06-10T07:07:59;21.50;96.40
8420;DHT22;4247;48.550;8.822;2023-06-10T07:10:26;21.60;96.40
8420;DHT22;4247;48.550;8.822;2023-06-10T07:12:53;21.70;96.30
8420;DHT22;4247;48.550;8.822;2023-06-10T07:15:19;21.80;95.80
8420;DHT22;4247;48.550;8.822;2023-06-10T07:17:46;21.80;95.80
8420;DHT22;4247;48.550;8.822;2023-06-10T07:20:14;21.90;95.60
8420;DHT22;4247;48.550;8.822;2023-06-10T07:22:42;21.90;95.90
8420;DHT22;4247;48.550;8.822;2023-06-10T07:25:08;22.00;95.40
8420;DHT22;4247;48.550;8.822;2023-06-10T07:27:35;22.20;95.30
8420;DHT22;4247;48.550;8.822;2023-06-10T07:30:03;22.40;95.40
8420;DHT22;4247;48.550;8.822;2023-06-10T07:32:30;22.70;95.40
8420;DHT22;4247;48.550;8.822;2023-06-10T07:34:57;23.10;94.90
8420;DHT22;4247;48.550;8.822;2023-06-10T07:37:25;23.30;94.70
8420;DHT22;4247;48.550;8.822;2023-06-10T07:39:51;23.70;94.50
8420;DHT22;4247;48.550;8.822;2023-06-10T07:42:18;24.00;93.90
8420;DHT22;4247;48.550;8.822;2023-06-10T07:44:46;24.30;93.40
8420;DHT22;4247;48.550;8.822;2023-06-10T07:47:13;24.70;93.20
8420;DHT22;4247;48.550;8.822;2023-06-10T07:49:40;24.90;92.60
8420;DHT22;4247;48.550;8.822;2023-06-10T07:52:07;25.10;92.60
8420;DHT22;4247;48.550;8.822;2023-06-10T07:54:36;25.30;92.30
8420;DHT22;4247;48.550;8.822;2023-06-10T07:57:03;25.60;92.60
8420;DHT22;4247;48.550;8.822;2023-06-10T07:59:30;25.70;91.70
8420;DHT22;4247;48.550;8.822;2023-06-10T08:01:56;25.80;91.50
8420;DHT22;4247;48.550;8.822;2023-06-10T08:04:23;25.90;91.20
8420;DHT22;4247;48.550;8.822;2023-06-10T08:06:50;26.00;91.10
8420;DHT22;4247;48.550;8.822;2023-06-10T08:09:16;26.20;91.60
8420;DHT22;4247;48.550;8.822;2023-06-10T08:11:46;26.00;88.70
8420;DHT22;4247;48.550;8.822;2023-06-10T08:14:13;26.20;90.00
8420;DHT22;4247;48.550;8.822;2023-06-10T08:16:40;26.20;90.90
8420;DHT22;4247;48.550;8.822;2023-06-10T08:19:07;26.20;90.40
8420;DHT22;4247;48.550;8.822;2023-06-10T08:21:35;26.00;90.10
8420;DHT22;4247;48.550;8.822;2023-06-10T08:24:02;25.80;90.30
8420;DHT22;4247;48.550;8.822;2023-06-10T08:26:29;25.70;90.30
8420;DHT22;4247;48.550;8.822;2023-06-10T08:28:57;25.70;90.10
8420;DHT22;4247;48.550;8.822;2023-06-10T08:31:24;25.40;90.00
8420;DHT22;4247;48.550;8.822;2023-06-10T08:33:50;25.40;90.30
8420;DHT22;4247;48.550;8.822;2023-06-10T08:36:17;25.20;89.30
8420;DHT22;4247;48.550;8.822;2023-06-10T08:38:44;25.10;90.40
8420;DHT22;4247;48.550;8.822;2023-06-10T08:41:12;25.10;90.80
8420;DHT22;4247;48.550;8.822;2023-06-10T08:43:43;25.20;90.50
8420;DHT22;4247;48.550;8.822;2023-06-10T08:46:14;25.20;90.50
8420;DHT22;4247;48.550;8.822;2023-06-10T08:48:42;25.10;90.10
8420;DHT22;4247;48.550;8.822;2023-06-10T08:51:10;25.10;90.10
8420;DHT22;4247;48.550;8.822;2023-06-10T08:53:40;25.00;90.00
8420;DHT22;4247;48.550;8.822;2023-06-10T08:56:09;25.00;90.40
8420;DHT22;4247;48.550;8.822;2023-06-10T08:58:36;25.00;90.40
8420;DHT22;4247;48.550;8.822;2023-06-10T09:01:07;25.10;90.20
8420;DHT22;4247;48.550;8.822;2023-06-10T09:03:36;25.20;90.30
8420;DHT22;4247;48.550;8.822;2023-06-10T09:06:05;25.30;89.90
8420;DHT22;4247;48.550;8.822;2023-06-10T09:08:33;25.10;88.30
8420;DHT22;4247;48.550;8.822;2023-06-10T09:11:00;25.10;88.30
8420;DHT22;4247;48.550;8.822;2023-06-10T09:13:27;25.10;88.50
8420;DHT22;4247;48.550;8.822;2023-06-10T09:15:53;25.20;89.10
8420;DHT22;4247;48.550;8.822;2023-06-10T09:18:22;25.20;88.70
8420;DHT22;4247;48.550;8.822;2023-06-10T09:20:50;25.30;87.90
8420;DHT22;4247;48.550;8.822;2023-06-10T09:23:17;25.10;87.10
8420;DHT22;4247;48.550;8.822;2023-06-10T09:25:44;25.20;88.40
8420;DHT22;4247;48.550;8.822;2023-06-10T09:28:13;25.30;87.10
8420;DHT22;4247;48.550;8.822;2023-06-10T09:30:40;25.30;88.30
8420;DHT22;4247;48.550;8.822;2023-06-10T09:33:11;25.40;88.40
8420;DHT22;4247;48.550;8.822;2023-06-10T09:35:45;25.40;88.40
8420;DHT22;4247;48.550;8.822;2023-06-10T09:38:14;25.50;87.90
8420;DHT22;4247;48.550;8.822;2023-06-10T09:40:49;25.60;88.90
8420;DHT22;4247;48.550;8.822;2023-06-10T09:43:16;25.60;87.80
8420;DHT22;4247;48.550;8.822;2023-06-10T09:45:43;25.40;86.90
8420;DHT22;4247;48.550;8.822;2023-06-10T09:48:10;25.20;86.50
8420;DHT22;4247;48.550;8.822;2023-06-10T09:50:41;25.30;88.20
8420;DHT22;4247;48.550;8.822;2023-06-10T09:53:08;25.30;87.70
8420;DHT22;4247;48.550;8.822;2023-06-10T09:55:39;25.30;88.00
8420;DHT22;4247;48.550;8.822;2023-06-10T09:58:07;25.50;87.60
8420;DHT22;4247;48.550;8.822;2023-06-10T10:00:34;25.70;87.80
8420;DHT22;4247;48.550;8.822;2023-06-10T10:03:01;25.90;88.30
8420;DHT22;4247;48.550;8.822;2023-06-10T10:05:28;26.00;87.60
8420;DHT22;4247;48.550;8.822;2023-06-10T10:07:56;26.00;85.80
8420;DHT22;4247;48.550;8.822;2023-06-10T10:10:23;25.90;87.00
8420;DHT22;4247;48.550;8.822;2023-06-10T10:12:54;25.80;87.30
8420;DHT22;4247;48.550;8.822;2023-06-10T10:15:24;25.80;88.20
8420;DHT22;4247;48.550;8.822;2023-06-10T10:17:54;25.80;87.80
8420;DHT22;4247;48.550;8.822;2023-06-10T10:20:26;25.80;89.00
8420;DHT22;4247;48.550;8.822;2023-06-10T10:22:55;25.70;88.20
8420;DHT22;4247;48.550;8.822;2023-06-10T10:25:25;25.70;87.00
8420;DHT22;4247;48.550;8.822;2023-06-10T10:27:57;25.70;85.90
8420;DHT22;4247;48.550;8.822;2023-06-10T10:30:25;25.60;86.50
8420;DHT22;4247;48.550;8.822;2023-06-10T10:33:03;25.50;87.10
8420;DHT22;4247;48.550;8.822;2023-06-10T10:35:32;25.30;87.20
8420;DHT22;4247;48.550;8.822;2023-06-10T10:38:00;25.20;88.60
8420;DHT22;4247;48.550;8.822;2023-06-10T10:40:28;25.20;87.50
8420;DHT22;4247;48.550;8.822;2023-06-10T10:42:58;25.40;89.30
8420;DHT22;4247;48.550;8.822;2023-06-10T10:45:27;25.40;87.70
8420;DHT22;4247;48.550;8.822;2023-06-10T10:47:55;25.50;88.20
8420;DHT22;4247;48.550;8.822;2023-06-10T10:50:23;25.60;87.20
8420;DHT22;4247;48.550;8.822;2023-06-10T10:52:54;25.70;88.20
8420;DHT22;4247;48.550;8.822;2023-06-10T10:55:22;25.70;86.90
8420;DHT22;4247;48.550;8.822;2023-06-10T10:57:54;25.50;87.60
8420;DHT22;4247;48.550;8.822;2023-06-10T11:00:27;25.40;87.60
8420;DHT22;4247;48.550;8.822;2023-06-10T11:02:58;25.40;88.10
8420;DHT22;4247;48.550;8.822;2023-06-10T11:05:32;25.50;87.90
8420;DHT22;4247;48.550;8.822;2023-06-10T11:08:01;25.60;87.50
8420;DHT22;4247;48.550;8.822;2023-06-10T11:10:31;25.70;87.30
8420;DHT22;4247;48.550;8.822;2023-06-10T11:12:58;25.70;86.30
8420;DHT22;4247;48.550;8.822;2023-06-10T11:15:28;25.80;86.20
8420;DHT22;4247;48.550;8.822;2023-06-10T11:18:09;25.70;85.20
8420;DHT22;4247;48.550;8.822;2023-06-10T11:20:53;25.60;85.00
8420;DHT22;4247;48.550;8.822;2023-06-10T11:23:41;25.70;85.70
8420;DHT22;4247;48.550;8.822;2023-06-10T11:26:30;25.80;85.60
8420;DHT22;4247;48.550;8.822;2023-06-10T11:29:05;26.10;86.30
8420;DHT22;4247;48.550;8.822;2023-06-10T11:31:42;26.30;84.00
8420;DHT22;4247;48.550;8.822;2023-06-10T11:34:10;26.20;82.80
8420;DHT22;4247;48.550;8.822;2023-06-10T11:36:39;26.20;82.20
8420;DHT22;4247;48.550;8.822;2023-06-10T11:39:08;26.10;81.90
8420;DHT22;4247;48.550;8.822;2023-06-10T11:41:36;25.90;82.00
8420;DHT22;4247;48.550;8.822;2023-06-10T11:44:06;25.90;83.50
8420;DHT22;4247;48.550;8.822;2023-06-10T11:46:35;25.80;82.50
8420;DHT22;4247;48.550;8.822;2023-06-10T11:49:03;25.90;83.10
8420;DHT22;4247;48.550;8.822;2023-06-10T11:51:33;25.90;83.50
8420;DHT22;4247;48.550;8.822;2023-06-10T11:54:00;26.00;83.90
8420;DHT22;4247;48.550;8.822;2023-06-10T11:56:28;26.10;84.40
8420;DHT22;4247;48.550;8.822;2023-06-10T11:58:57;26.00;81.80
8420;DHT22;4247;48.550;8.822;2023-06-10T12:01:25;26.10;83.60
8420;DHT22;4247;48.550;8.822;2023-06-10T12:04:01;26.10;81.80
8420;DHT22;4247;48.550;8.822;2023-06-10T12:06:38;25.90;82.60
8420;DHT22;4247;48.550;8.822;2023-06-10T12:09:06;26.00;82.60
8420;DHT22;4247;48.550;8.822;2023-06-10T12:11:33;26.10;83.00
8420;DHT22;4247;48.550;8.822;2023-06-10T12:13:59;26.20;82.50
8420;DHT22;4247;48.550;8.822;2023-06-10T12:16:28;26.30;81.80
8420;DHT22;4247;48.550;8.822;2023-06-10T12:19:02;26.30;81.50
8420;DHT22;4247;48.550;8.822;2023-06-10T12:21:30;26.30;81.70
8420;DHT22;4247;48.550;8.822;2023-06-10T12:24:03;26.20;81.60
8420;DHT22;4247;48.550;8.822;2023-06-10T12:26:38;26.20;80.90
8420;DHT22;4247;48.550;8.822;2023-06-10T12:29:18;26.10;80.00
8420;DHT22;4247;48.550;8.822;2023-06-10T12:32:00;26.10;78.60
8420;DHT22;4247;48.550;8.822;2023-06-10T12:34:34;26.00;79.80
8420;DHT22;4247;48.550;8.822;2023-06-10T12:37:01;26.10;82.30
8420;DHT22;4247;48.550;8.822;2023-06-10T12:39:29;26.10;81.90
8420;DHT22;4247;48.550;8.822;2023-06-10T12:41:57;26.10;81.90
8420;DHT22;4247;48.550;8.822;2023-06-10T12:44:31;26.10;82.10
8420;DHT22;4247;48.550;8.822;2023-06-10T12:46:58;26.20;83.00
8420;DHT22;4247;48.550;8.822;2023-06-10T12:49:25;26.20;81.40
8420;DHT22;4247;48.550;8.822;2023-06-10T12:51:54;26.20;81.20
8420;DHT22;4247;48.550;8.822;2023-06-10T12:54:21;26.30;81.70
8420;DHT22;4247;48.550;8.822;2023-06-10T12:56:48;26.40;81.50
8420;DHT22;4247;48.550;8.822;2023-06-10T12:59:15;26.30;78.20
8420;DHT22;4247;48.550;8.822;2023-06-10T13:01:42;26.10;79.00
8420;DHT22;4247;48.550;8.822;2023-06-10T13:04:08;26.00;80.00
8420;DHT22;4247;48.550;8.822;2023-06-10T13:06:35;25.90;80.30
8420;DHT22;4247;48.550;8.822;2023-06-10T13:09:05;25.90;81.10
8420;DHT22;4247;48.550;8.822;2023-06-10T13:11:35;25.90;80.10
8420;DHT22;4247;48.550;8.822;2023-06-10T13:14:02;25.90;78.50
8420;DHT22;4247;48.550;8.822;2023-06-10T13:16:30;25.90;78.80
8420;DHT22;4247;48.550;8.822;2023-06-10T13:18:57;25.90;78.50
8420;DHT22;4247;48.550;8.822;2023-06-10T13:21:23;26.00;80.40
8420;DHT22;4247;48.550;8.822;2023-06-10T13:23:50;26.00;77.90
8420;DHT22;4247;48.550;8.822;2023-06-10T13:26:18;25.90;77.40
8420;DHT22;4247;48.550;8.822;2023-06-10T13:28:45;25.90;77.40
8420;DHT22;4247;48.550;8.822;2023-06-10T13:31:12;25.90;76.80
8420;DHT22;4247;48.550;8.822;2023-06-10T13:33:39;26.00;77.30
8420;DHT22;4247;48.550;8.822;2023-06-10T13:36:06;26.00;77.00
8420;DHT22;4247;48.550;8.822;2023-06-10T13:38:32;26.20;79.00
8420;DHT22;4247;48.550;8.822;2023-06-10T13:40:59;26.30;78.40
8420;DHT22;4247;48.550;8.822;2023-06-10T13:43:27;26.40;77.40
8420;DHT22;4247;48.550;8.822;2023-06-10T13:45:54;26.30;77.90
8420;DHT22;4247;48.550;8.822;2023-06-10T13:48:21;26.30;79.00
8420;DHT22;4247;48.550;8.822;2023-06-10T13:50:48;26.20;79.00
8420;DHT22;4247;48.550;8.822;2023-06-10T13:53:15;26.20;79.20
8420;DHT22;4247;48.550;8.822;2023-06-10T13:55:41;26.20;78.50
8420;DHT22;4247;48.550;8.822;2023-06-10T13:58:08;26.20;78.10
8420;DHT22;4247;48.550;8.822;2023-06-10T14:00:36;26.10;77.30
8420;DHT22;4247;48.550;8.822;2023-06-10T14:03:03;26.00;78.20
8420;DHT22;4247;48.550;8.822;2023-06-10T14:05:29;25.90;79.80
8420;DHT22;4247;48.550;8.822;2023-06-10T14:07:57;25.90;79.20
8420;DHT22;4247;48.550;8.822;2023-06-10T14:10:23;25.90;78.70
8420;DHT22;4247;48.550;8.822;2023-06-10T14:12:50;25.90;78.20
8420;DHT22;4247;48.550;8.822;2023-06-10T14:15:17;26.00;78.80
8420;DHT22;4247;48.550;8.822;2023-06-10T14:17:45;26.10;78.50
8420;DHT22;4247;48.550;8.822;2023-06-10T14:20:12;26.20;78.10
8420;DHT22;4247;48.550;8.822;2023-06-10T14:22:39;26.20;79.10
8420;DHT22;4247;48.550;8.822;2023-06-10T14:25:06;26.20;80.80
8420;DHT22;4247;48.550;8.822;2023-06-10T14:27:33;26.20;79.70
8420;DHT22;4247;48.550;8.822;2023-06-10T14:30:00;26.10;80.90
8420;DHT22;4247;48.550;8.822;2023-06-10T14:32:27;26.00;80.20
8420;DHT22;4247;48.550;8.822;2023-06-10T14:34:55;25.80;81.20
8420;DHT22;4247;48.550;8.822;2023-06-10T14:37:22;25.70;80.90
8420;DHT22;4247;48.550;8.822;2023-06-10T14:39:48;25.80;82.30
8420;DHT22;4247;48.550;8.822;2023-06-10T14:42:15;25.90;80.70
8420;DHT22;4247;48.550;8.822;2023-06-10T14:44:42;25.90;80.90
8420;DHT22;4247;48.550;8.822;2023-06-10T14:47:08;25.90;79.40
8420;DHT22;4247;48.550;8.822;2023-06-10T14:49:35;26.00;79.70
8420;DHT22;4247;48.550;8.822;2023-06-10T14:52:04;26.00;78.90
8420;DHT22;4247;48.550;8.822;2023-06-10T14:54:30;26.10;79.20
8420;DHT22;4247;48.550;8.822;2023-06-10T14:56:57;26.20;79.30
8420;DHT22;4247;48.550;8.822;2023-06-10T14:59:24;26.40;79.20
8420;DHT22;4247;48.550;8.822;2023-06-10T15:01:50;26.50;78.90
8420;DHT22;4247;48.550;8.822;2023-06-10T15:04:17;26.70;78.90
8420;DHT22;4247;48.550;8.822;2023-06-10T15:06:44;26.70;79.90
8420;DHT22;4247;48.550;8.822;2023-06-10T15:09:12;26.60;78.20
8420;DHT22;4247;48.550;8.822;2023-06-10T15:11:38;26.50;77.80
8420;DHT22;4247;48.550;8.822;2023-06-10T15:14:05;26.40;77.50
8420;DHT22;4247;48.550;8.822;2023-06-10T15:16:32;26.20;77.90
8420;DHT22;4247;48.550;8.822;2023-06-10T15:18:58;26.10;79.70
8420;DHT22;4247;48.550;8.822;2023-06-10T15:21:25;26.10;80.00
8420;DHT22;4247;48.550;8.822;2023-06-10T15:23:52;25.90;79.80
8420;DHT22;4247;48.550;8.822;2023-06-10T15:26:20;25.80;80.40
8420;DHT22;4247;48.550;8.822;2023-06-10T15:28:46;25.70;80.70
8420;DHT22;4247;48.550;8.822;2023-06-10T15:31:13;25.70;81.20
8420;DHT22;4247;48.550;8.822;2023-06-10T15:33:40;25.60;81.10
8420;DHT22;4247;48.550;8.822;2023-06-10T15:36:07;25.60;81.50
8420;DHT22;4247;48.550;8.822;2023-06-10T15:38:33;25.60;82.30
8420;DHT22;4247;48.550;8.822;2023-06-10T15:41:00;25.60;82.60
8420;DHT22;4247;48.550;8.822;2023-06-10T15:43:28;25.70;82.60
8420;DHT22;4247;48.550;8.822;2023-06-10T15:45:55;25.70;80.20
8420;DHT22;4247;48.550;8.822;2023-06-10T15:48:22;25.70;80.00
8420;DHT22;4247;48.550;8.822;2023-06-10T15:50:48;25.70;81.30
8420;DHT22;4247;48.550;8.822;2023-06-10T15:53:15;25.80;80.30
8420;DHT22;4247;48.550;8.822;2023-06-10T15:55:42;25.90;80.50
8420;DHT22;4247;48.550;8.822;2023-06-10T15:58:09;25.90;80.00
8420;DHT22;4247;48.550;8.822;2023-06-10T16:00:37;25.90;81.00
8420;DHT22;4247;48.550;8.822;2023-06-10T16:03:04;26.00;79.80
8420;DHT22;4247;48.550;8.822;2023-06-10T16:05:30;26.00;79.90